Time;durP1;ratioP1;P1;durP2;ratioP2;P2;SDS_P1;SDS_P2;PMS_P1;PMS_P2;Temp;Humidity;BMP_temperature;BMP_pressure;BME280_temperature;BME280_humidity;BME280_pressure;Samples;Min_cycle;Max_cycle;Signal;HPM_P1;HPM_P2
2021/11/16 05:05:03;;;;;;;30.40;17.40;;;6.10;99.90;;;;;;4989771;28;20241;-71
2021/11/16 05:07:31;;;;;;;30.38;18.65;;;6.10;99.90;;;;;;4992171;28;20204;-71
2021/11/16 05:10:00;;;;;;;35.33;19.40;;;6.20;99.90;;;;;;4990086;28;20297;-71
2021/11/16 05:12:30;;;;;;;34.85;18.50;;;6.10;99.90;;;;;;4990549;28;20720;-71
2021/11/16 05:14:59;;;;;;;38.95;19.45;;;6.10;99.90;;;;;;5033611;23;20321;-72
2021/11/16 05:17:28;;;;;;;36.92;21.50;;;6.10;99.90;;;;;;4995053;28;20577;-73
2021/11/16 05:19:55;;;;;;;35.25;20.30;;;6.20;99.90;;;;;;5005192;28;20203;-74
2021/11/16 05:22:22;;;;;;;41.65;23.52;;;6.20;99.90;;;;;;4997322;28;20208;-73
2021/11/16 05:24:50;;;;;;;30.92;18.67;;;6.20;99.90;;;;;;5002790;28;20252;-74
2021/11/16 05:27:17;;;;;;;34.63;19.85;;;6.20;99.90;;;;;;5005631;28;20275;-73
2021/11/16 05:29:44;;;;;;;31.23;19.35;;;6.20;99.90;;;;;;5004550;28;20199;-74
2021/11/16 05:32:11;;;;;;;34.95;18.83;;;6.20;99.90;;;;;;5014283;28;20213;-74
2021/11/16 05:34:39;;;;;;;31.75;18.45;;;6.10;99.90;;;;;;5011550;28;20219;-75
2021/11/16 05:37:06;;;;;;;36.53;19.00;;;6.10;99.90;;;;;;5002820;28;20216;-73
2021/11/16 05:39:33;;;;;;;29.70;18.38;;;6.10;99.90;;;;;;5003871;28;20587;-73
2021/11/16 05:42:00;;;;;;;37.30;21.40;;;6.10;99.90;;;;;;5013607;28;20207;-74
2021/11/16 05:44:28;;;;;;;32.80;19.15;;;6.10;99.90;;;;;;5011676;28;20230;-74
2021/11/16 05:46:55;;;;;;;33.15;20.73;;;6.10;99.90;;;;;;5012160;28;20235;-73
2021/11/16 05:49:22;;;;;;;34.45;19.23;;;6.10;99.90;;;;;;5001521;28;20761;-74
2021/11/16 05:51:50;;;;;;;34.45;20.48;;;6.10;99.90;;;;;;5009684;28;20205;-74
2021/11/16 05:54:19;;;;;;;41.42;20.45;;;6.10;99.90;;;;;;5010408;28;20216;-73
2021/11/16 05:56:45;;;;;;;31.52;19.45;;;6.10;99.90;;;;;;4995684;28;20204;-73
2021/11/16 05:59:12;;;;;;;31.75;18.23;;;6.10;99.90;;;;;;5006502;28;20281;-74
2021/11/16 06:01:41;;;;;;;35.28;20.58;;;6.10;99.90;;;;;;4999451;28;20204;-73
2021/11/16 06:04:08;;;;;;;35.40;19.98;;;6.10;99.90;;;;;;4998633;28;20637;-74
2021/11/16 06:06:35;;;;;;;36.78;19.60;;;6.00;99.90;;;;;;5011110;28;20565;-73
2021/11/16 06:09:06;;;;;;;41.90;21.58;;;6.00;99.90;;;;;;5005349;28;20265;-73
2021/11/16 06:11:33;;;;;;;37.90;20.92;;;6.00;99.90;;;;;;4993241;28;20196;-73
2021/11/16 06:14:00;;;;;;;32.15;18.45;;;6.10;99.90;;;;;;5005549;28;20258;-73
2021/11/16 06:16:28;;;;;;;34.03;19.88;;;6.00;99.90;;;;;;5010520;28;20225;-73
2021/11/16 06:18:58;;;;;;;36.15;20.63;;;6.00;99.90;;;;;;4994821;28;20200;-73
2021/11/16 06:21:25;;;;;;;37.38;20.48;;;6.00;99.90;;;;;;5008168;28;20290;-73
2021/11/16 06:23:53;;;;;;;34.05;21.23;;;6.10;99.90;;;;;;5005223;28;20231;-73
2021/11/16 06:26:22;;;;;;;32.72;20.20;;;6.00;99.90;;;;;;4993083;28;20203;-74
2021/11/16 06:28:49;;;;;;;38.00;22.25;;;6.00;99.90;;;;;;4994639;28;20199;-74
2021/11/16 06:31:20;;;;;;;39.67;22.40;;;6.00;99.90;;;;;;5009516;28;20210;-74
2021/11/16 06:33:47;;;;;;;32.00;21.58;;;6.10;99.90;;;;;;5007941;28;20234;-74
2021/11/16 06:36:14;;;;;;;42.88;22.42;;;6.10;99.90;;;;;;5011456;28;20203;-74
2021/11/16 06:38:41;;;;;;;41.42;21.88;;;6.00;99.90;;;;;;4994662;28;20208;-74
2021/11/16 06:41:08;;;;;;;33.53;20.92;;;6.10;99.90;;;;;;4999251;28;20587;-74
2021/11/16 06:43:36;;;;;;;40.03;21.25;;;6.10;99.90;;;;;;5034039;28;20245;-74
2021/11/16 06:46:05;;;;;;;45.67;22.67;;;6.00;99.90;;;;;;5021301;28;20255;-74
2021/11/16 06:48:32;;;;;;;38.92;23.15;;;6.00;99.90;;;;;;5018761;28;20211;-74
2021/11/16 06:50:59;;;;;;;36.45;21.30;;;6.00;99.90;;;;;;5015824;28;20195;-74
2021/11/16 06:53:28;;;;;;;36.40;20.25;;;6.00;99.90;;;;;;5010885;28;20226;-73
2021/11/16 06:55:56;;;;;;;38.38;21.02;;;6.00;99.90;;;;;;5001913;28;20203;-74
2021/11/16 06:58:23;;;;;;;39.40;21.35;;;6.00;99.90;;;;;;5016198;28;20203;-74
2021/11/16 07:00:52;;;;;;;37.50;20.10;;;6.00;99.90;;;;;;5005333;28;20285;-75
2021/11/16 07:03:19;;;;;;;43.40;20.45;;;6.00;99.90;;;;;;5015528;28;20231;-74
2021/11/16 07:05:51;;;;;;;38.90;24.00;;;6.10;99.90;;;;;;5011736;28;20230;-74
2021/11/16 07:08:29;;;;;;;37.13;20.65;;;6.00;99.90;;;;;;5015352;28;20203;-74
2021/11/16 07:11:02;;;;;;;38.30;21.67;;;6.00;99.90;;;;;;5011218;28;20203;-75
2021/11/16 07:13:29;;;;;;;39.22;20.70;;;6.00;99.90;;;;;;5013027;28;20285;-74
2021/11/16 07:15:57;;;;;;;33.90;21.15;;;6.00;99.90;;;;;;5002018;28;20257;-72
2021/11/16 07:18:25;;;;;;;39.42;20.52;;;6.00;99.90;;;;;;4999767;28;20215;-74
2021/11/16 07:20:59;;;;;;;39.88;19.58;;;6.00;99.90;;;;;;5013939;28;20211;-74
2021/11/16 07:23:25;;;;;;;39.35;20.23;;;6.00;99.90;;;;;;5000051;28;20231;-74
2021/11/16 07:25:52;;;;;;;41.97;21.17;;;6.00;99.90;;;;;;4994601;28;20662;-74
2021/11/16 07:28:19;;;;;;;39.85;21.40;;;6.00;99.90;;;;;;5009454;28;20257;-74
2021/11/16 07:30:46;;;;;;;31.88;18.38;;;6.00;99.90;;;;;;5014508;28;20215;-73
2021/11/16 07:33:19;;;;;;;37.25;21.05;;;6.00;99.90;;;;;;5014208;28;20223;-73
2021/11/16 07:35:45;;;;;;;26.98;17.20;;;6.00;99.90;;;;;;5008922;28;20196;-73
2021/11/16 07:38:19;;;;;;;37.58;21.13;;;5.90;99.90;;;;;;4994627;28;20340;-73
2021/11/16 07:40:47;;;;;;;31.13;19.25;;;5.90;99.90;;;;;;5009159;28;20273;-73
2021/11/16 07:43:17;;;;;;;41.05;20.08;;;6.00;99.90;;;;;;5006957;28;20361;-73
2021/11/16 07:45:45;;;;;;;41.10;21.42;;;6.00;99.90;;;;;;5008538;28;20227;-73
2021/11/16 07:48:14;;;;;;;41.08;21.33;;;5.90;99.90;;;;;;5014503;28;20314;-72
2021/11/16 07:50:44;;;;;;;38.78;21.05;;;6.00;99.90;;;;;;5006910;28;20199;-72
2021/11/16 07:53:18;;;;;;;43.28;19.80;;;6.00;99.90;;;;;;5003140;28;20231;-73
2021/11/16 07:55:56;;;;;;;36.55;21.38;;;6.00;99.90;;;;;;5011553;28;20282;-73
2021/11/16 07:58:24;;;;;;;34.30;19.77;;;6.00;99.90;;;;;;5009122;28;20623;-73
2021/11/16 08:00:53;;;;;;;30.70;19.20;;;6.00;99.90;;;;;;5015864;28;20696;-73
2021/11/16 08:03:25;;;;;;;37.85;20.63;;;6.00;99.90;;;;;;5017922;28;20333;-73
2021/11/16 08:06:00;;;;;;;41.15;20.42;;;6.00;99.90;;;;;;5003578;28;20223;-73
2021/11/16 08:08:51;;;;;;;39.65;20.17;;;6.00;99.90;;;;;;5005333;28;20218;-73
2021/11/16 08:11:21;;;;;;;38.70;21.25;;;6.00;99.90;;;;;;4997545;28;20201;-74
2021/11/16 08:13:54;;;;;;;38.88;20.13;;;6.10;99.90;;;;;;4995910;28;20314;-74
2021/11/16 08:16:22;;;;;;;33.17;18.73;;;6.10;99.90;;;;;;5013153;28;20207;-74
2021/11/16 08:18:55;;;;;;;37.45;19.58;;;6.00;99.90;;;;;;4997260;28;20208;-74
2021/11/16 08:21:22;;;;;;;41.15;21.17;;;6.10;99.90;;;;;;4997563;28;20298;-73
2021/11/16 08:23:52;;;;;;;35.42;21.80;;;6.10;99.90;;;;;;5014667;28;20223;-73
2021/11/16 08:26:20;;;;;;;38.30;18.42;;;6.00;99.90;;;;;;4998528;28;20254;-74
2021/11/16 08:28:49;;;;;;;35.67;20.95;;;6.10;99.90;;;;;;5011455;28;20234;-74
2021/11/16 08:31:16;;;;;;;37.63;19.67;;;6.10;99.90;;;;;;5002956;28;20254;-73
2021/11/16 08:33:43;;;;;;;38.03;20.95;;;6.00;99.90;;;;;;5001118;28;20712;-74
2021/11/16 08:36:12;;;;;;;40.90;20.10;;;6.10;99.90;;;;;;5011634;28;20210;-74
2021/11/16 08:38:41;;;;;;;44.20;22.58;;;6.00;99.90;;;;;;5011817;28;20245;-74
2021/11/16 08:41:08;;;;;;;48.20;23.55;;;6.00;99.90;;;;;;5010982;28;20207;-73
2021/11/16 08:43:38;;;;;;;48.15;24.17;;;6.00;99.90;;;;;;5005323;28;20278;-74
2021/11/16 08:46:07;;;;;;;44.60;23.20;;;6.10;99.90;;;;;;5012696;28;20641;-74
2021/11/16 08:48:39;;;;;;;49.65;23.17;;;6.10;99.90;;;;;;5013014;28;20211;-74
2021/11/16 08:51:08;;;;;;;39.55;22.45;;;6.10;99.90;;;;;;5012417;28;20210;-74
2021/11/16 08:53:38;;;;;;;34.53;20.88;;;6.10;99.90;;;;;;5012580;28;20224;-74
2021/11/16 08:56:08;;;;;;;39.88;20.95;;;6.10;99.90;;;;;;5012658;28;20333;-74
2021/11/16 08:58:35;;;;;;;43.45;21.50;;;6.10;99.90;;;;;;5012169;28;20249;-73
2021/11/16 09:01:07;;;;;;;40.83;21.98;;;6.00;99.90;;;;;;5012700;28;20215;-73
2021/11/16 09:03:35;;;;;;;40.45;21.35;;;6.00;99.90;;;;;;5013002;28;20280;-74
2021/11/16 09:06:13;;;;;;;37.65;20.33;;;6.10;99.90;;;;;;5012032;28;20235;-74
2021/11/16 09:08:42;;;;;;;44.92;24.15;;;6.10;99.90;;;;;;4996483;28;20212;-74
2021/11/16 09:11:13;;;;;;;40.53;21.08;;;6.10;99.90;;;;;;4992746;28;20325;-74
2021/11/16 09:13:40;;;;;;;43.83;22.33;;;6.10;99.90;;;;;;4992564;28;20250;-74
2021/11/16 09:16:10;;;;;;;44.38;19.63;;;6.10;99.90;;;;;;4992500;28;20219;-74
2021/11/16 09:18:39;;;;;;;36.78;19.05;;;6.10;99.90;;;;;;5004158;28;20223;-74
2021/11/16 09:21:08;;;;;;;39.33;20.35;;;6.00;99.90;;;;;;5010913;28;20195;-74
2021/11/16 09:23:39;;;;;;;30.70;18.40;;;6.00;99.90;;;;;;5001016;28;20231;-74
2021/11/16 09:26:16;;;;;;;33.67;17.95;;;6.00;99.90;;;;;;4992034;28;20228;-74
2021/11/16 09:28:50;;;;;;;38.50;20.20;;;6.00;99.90;;;;;;5011888;28;20664;-73
2021/11/16 09:31:19;;;;;;;32.25;17.73;;;6.00;99.90;;;;;;5011660;28;20671;-73
2021/11/16 09:33:46;;;;;;;35.97;17.40;;;6.00;99.90;;;;;;5012242;28;20258;-74
2021/11/16 09:36:24;;;;;;;42.70;19.17;;;6.00;99.90;;;;;;5010741;28;20199;-74
2021/11/16 09:38:52;;;;;;;36.55;21.20;;;6.00;99.90;;;;;;5012027;28;20218;-72
2021/11/16 09:41:36;;;;;;;40.08;19.45;;;6.00;99.90;;;;;;5011747;28;20311;-72
2021/11/16 09:44:08;;;;;;;46.03;20.50;;;6.00;99.90;;;;;;5011604;28;20242;-73
2021/11/16 09:46:44;;;;;;;39.00;18.50;;;6.10;99.90;;;;;;5011409;28;20262;-73
2021/11/16 09:49:14;;;;;;;37.28;19.98;;;6.00;99.90;;;;;;5008354;28;20668;-73
2021/11/16 09:51:42;;;;;;;35.80;17.63;;;6.10;99.90;;;;;;4991751;28;20208;-73
2021/11/16 09:54:10;;;;;;;38.75;19.13;;;6.10;99.90;;;;;;4992259;28;20231;-74
2021/11/16 09:56:38;;;;;;;38.47;18.15;;;6.10;99.90;;;;;;4991479;28;20726;-73
2021/11/16 09:59:06;;;;;;;31.63;17.95;;;6.20;99.90;;;;;;4991892;28;20216;-73
2021/11/16 10:01:36;;;;;;;35.05;19.05;;;6.20;99.90;;;;;;4992225;28;20262;-73
2021/11/16 10:04:17;;;;;;;34.50;17.98;;;6.20;99.90;;;;;;5001747;28;20262;-73
2021/11/16 10:06:44;;;;;;;28.95;16.23;;;6.20;99.90;;;;;;5007722;28;20645;-73
2021/11/16 10:09:12;;;;;;;34.35;17.35;;;6.20;99.90;;;;;;5008190;28;20200;-74
2021/11/16 10:11:43;;;;;;;45.05;21.52;;;6.30;99.90;;;;;;5013027;28;20207;-73
2021/11/16 10:14:11;;;;;;;37.60;18.10;;;6.30;99.90;;;;;;5011693;28;20231;-73
2021/11/16 10:16:38;;;;;;;31.73;18.15;;;6.40;99.90;;;;;;5011829;28;20207;-73
2021/11/16 10:19:05;;;;;;;34.63;18.48;;;6.40;99.90;;;;;;5011046;28;20210;-73
2021/11/16 10:21:32;;;;;;;32.50;18.20;;;6.40;99.90;;;;;;5011471;28;20207;-73
2021/11/16 10:24:00;;;;;;;35.15;18.92;;;6.40;99.90;;;;;;5012099;28;20321;-73
2021/11/16 10:26:33;;;;;;;36.13;18.40;;;6.40;99.90;;;;;;5011911;28;20230;-73
2021/11/16 10:29:02;;;;;;;37.22;19.35;;;6.40;99.90;;;;;;5006659;28;20211;-73
2021/11/16 10:31:32;;;;;;;33.13;18.35;;;6.40;99.90;;;;;;5013341;28;20211;-73
2021/11/16 10:34:00;;;;;;;35.85;17.40;;;6.40;99.90;;;;;;5015365;28;20239;-73
2021/11/16 10:36:28;;;;;;;32.40;17.50;;;6.40;99.90;;;;;;5014617;28;20199;-74
2021/11/16 10:38:59;;;;;;;27.83;16.00;;;6.50;99.90;;;;;;5015657;28;20213;-74
2021/11/16 10:41:28;;;;;;;36.25;19.00;;;6.50;99.90;;;;;;5013522;28;20548;-74
2021/11/16 10:43:57;;;;;;;36.33;20.55;;;6.50;99.90;;;;;;5010246;28;20227;-74
2021/11/16 10:46:27;;;;;;;33.45;18.95;;;6.50;99.90;;;;;;5014622;28;20318;-74
2021/11/16 10:48:56;;;;;;;31.77;19.70;;;6.50;99.90;;;;;;5014423;28;20207;-74
2021/11/16 10:51:29;;;;;;;30.55;19.20;;;6.50;99.90;;;;;;5014642;28;20203;-74
2021/11/16 10:53:56;;;;;;;34.30;19.80;;;6.50;99.90;;;;;;5015298;28;20321;-74
2021/11/16 10:56:25;;;;;;;38.67;19.10;;;6.50;99.90;;;;;;5015040;28;20210;-74
2021/11/16 10:58:52;;;;;;;33.63;19.25;;;6.50;99.90;;;;;;5014475;28;20210;-74
2021/11/16 11:01:21;;;;;;;35.55;19.77;;;6.50;99.90;;;;;;5014105;28;20208;-74
2021/11/16 11:03:53;;;;;;;32.80;18.20;;;6.60;99.90;;;;;;5007630;28;20223;-74
2021/11/16 11:06:22;;;;;;;35.30;19.08;;;6.50;99.90;;;;;;4995096;28;20223;-74
2021/11/16 11:08:51;;;;;;;33.65;18.65;;;6.50;99.90;;;;;;4995265;28;20212;-74
2021/11/16 11:11:21;;;;;;;33.13;18.60;;;6.50;99.90;;;;;;4995080;28;20216;-74
2021/11/16 11:13:53;;;;;;;34.35;19.98;;;6.50;99.90;;;;;;4994941;28;20243;-74
2021/11/16 11:16:21;;;;;;;30.77;19.20;;;6.50;99.90;;;;;;4994442;28;20823;-74
2021/11/16 11:18:50;;;;;;;30.58;15.95;;;6.50;99.90;;;;;;5007418;28;20203;-74
2021/11/16 11:21:39;;;;;;;29.30;15.93;;;6.50;99.90;;;;;;5014055;28;20246;-76
2021/11/16 11:24:17;;;;;;;29.00;15.35;;;6.50;99.90;;;;;;5014541;28;20611;-74
2021/11/16 11:26:52;;;;;;;30.27;16.02;;;6.50;99.90;;;;;;5014400;28;20235;-74
2021/11/16 11:29:37;;;;;;;28.77;15.05;;;6.50;99.90;;;;;;5014938;28;20211;-74
2021/11/16 11:32:14;;;;;;;36.42;17.60;;;6.50;99.90;;;;;;5005689;28;20206;-74
2021/11/16 11:34:46;;;;;;;30.00;14.57;;;6.60;99.90;;;;;;5006338;28;20222;-73
2021/11/16 11:37:18;;;;;;;25.20;15.18;;;6.50;99.90;;;;;;5014603;28;20203;-73
2021/11/16 11:39:45;;;;;;;27.60;15.88;;;6.50;99.90;;;;;;5014589;28;20242;-74
2021/11/16 11:42:14;;;;;;;26.50;15.30;;;6.50;99.90;;;;;;5014781;28;20551;-74
2021/11/16 11:44:55;;;;;;;30.15;16.38;;;6.50;99.90;;;;;;5012912;28;20249;-74
2021/11/16 11:47:27;;;;;;;26.70;16.00;;;6.50;99.90;;;;;;5013882;28;20321;-74
2021/11/16 11:49:56;;;;;;;29.25;14.25;;;6.60;99.90;;;;;;5013422;28;20668;-74
2021/11/16 11:52:23;;;;;;;29.77;17.95;;;6.60;99.90;;;;;;5013828;28;20214;-74
2021/11/16 11:54:50;;;;;;;32.25;17.13;;;6.60;99.90;;;;;;5014044;28;21061;-74
2021/11/16 11:57:17;;;;;;;28.25;17.27;;;6.60;99.90;;;;;;5013236;28;20695;-74
2021/11/16 11:59:45;;;;;;;29.73;16.35;;;6.70;99.90;;;;;;5013501;28;20299;-74
2021/11/16 12:02:14;;;;;;;30.02;17.48;;;6.70;99.90;;;;;;5013288;28;20284;-74
2021/11/16 12:04:41;;;;;;;25.75;14.82;;;6.70;99.90;;;;;;5012918;28;20262;-74
2021/11/16 12:07:09;;;;;;;28.08;14.10;;;6.70;99.90;;;;;;5012552;28;20226;-75
2021/11/16 12:09:37;;;;;;;20.17;11.50;;;6.70;99.90;;;;;;5013066;28;20207;-74
2021/11/16 12:12:04;;;;;;;19.27;11.75;;;6.60;99.90;;;;;;5012744;28;20608;-75
2021/11/16 12:14:40;;;;;;;24.00;13.95;;;6.60;99.90;;;;;;4998282;28;20308;-74
2021/11/16 12:17:13;;;;;;;22.42;13.85;;;6.50;99.90;;;;;;4993086;28;20612;-74
2021/11/16 12:19:41;;;;;;;24.80;14.73;;;6.60;99.90;;;;;;4993158;28;20218;-74
2021/11/16 12:22:21;;;;;;;22.02;12.88;;;6.60;99.90;;;;;;4993483;28;20235;-76
2021/11/16 12:24:48;;;;;;;25.25;15.60;;;6.60;99.90;;;;;;4993745;28;20259;-74
2021/11/16 12:27:16;;;;;;;26.63;13.60;;;6.60;99.90;;;;;;5009245;28;20630;-75
2021/11/16 12:29:46;;;;;;;23.35;12.88;;;6.60;99.90;;;;;;5012573;28;20233;-75
2021/11/16 12:32:16;;;;;;;22.80;14.27;;;6.60;99.90;;;;;;5012578;28;20212;-75
2021/11/16 12:34:48;;;;;;;23.83;13.85;;;6.50;99.90;;;;;;5012502;28;20307;-74
2021/11/16 12:37:32;;;;;;;25.13;16.27;;;6.50;99.90;;;;;;5008056;28;20218;-75
2021/11/16 12:40:01;;;;;;;29.15;18.00;;;6.50;99.90;;;;;;5012567;28;20258;-74
2021/11/16 12:42:28;;;;;;;25.75;15.75;;;6.60;99.90;;;;;;5004229;28;20212;-74
2021/11/16 12:44:58;;;;;;;29.83;17.08;;;6.60;99.90;;;;;;5012282;28;20226;-74
2021/11/16 12:47:27;;;;;;;34.95;18.08;;;6.70;99.90;;;;;;5008678;28;20259;-74
2021/11/16 12:50:06;;;;;;;27.25;16.55;;;6.70;99.90;;;;;;5012889;28;20220;-74
2021/11/16 12:52:45;;;;;;;30.23;19.20;;;6.70;99.90;;;;;;5015127;28;20211;-74
2021/11/16 12:55:19;;;;;;;373.98;156.02;;;6.80;99.90;;;;;;5014631;28;20230;-74
2021/11/16 12:57:46;;;;;;;209.38;96.10;;;6.80;99.90;;;;;;5014525;28;20244;-74
2021/11/16 13:00:15;;;;;;;172.32;84.07;;;6.80;99.90;;;;;;5014661;28;20218;-74
2021/11/16 13:02:50;;;;;;;209.52;89.72;;;6.80;99.90;;;;;;5014008;28;20560;-74
2021/11/16 13:05:29;;;;;;;100.47;57.95;;;6.80;99.90;;;;;;5013883;28;20215;-74
2021/11/16 13:08:02;;;;;;;53.03;34.78;;;6.80;99.90;;;;;;5008374;28;20222;-74
2021/11/16 13:10:30;;;;;;;38.47;20.27;;;6.80;99.90;;;;;;4994323;28;20591;-74
2021/11/16 13:12:59;;;;;;;31.10;18.05;;;6.80;99.90;;;;;;4994522;28;20208;-74
2021/11/16 13:15:44;;;;;;;65.15;39.47;;;6.90;99.90;;;;;;5007087;28;20290;-74
2021/11/16 13:18:25;;;;;;;37.85;20.00;;;6.90;99.90;;;;;;5014610;28;20210;-73
2021/11/16 13:20:55;;;;;;;26.25;17.13;;;6.90;99.90;;;;;;5008821;28;20214;-74
2021/11/16 13:23:26;;;;;;;28.30;17.83;;;6.90;99.90;;;;;;4996736;28;20247;-74
2021/11/16 13:25:55;;;;;;;31.90;17.85;;;6.90;99.90;;;;;;5003282;28;20300;-74
2021/11/16 13:31:55;;;;;;;33.70;20.13;;;6.80;99.90;;;;;;4997307;28;20252;-73
2021/11/16 13:34:32;;;;;;;31.90;18.27;;;6.80;99.90;;;;;;5012453;28;20289;-73
2021/11/16 13:37:11;;;;;;;31.55;18.30;;;6.80;99.90;;;;;;5015322;28;20226;-72
2021/11/16 13:39:39;;;;;;;26.92;14.32;;;6.80;99.90;;;;;;5007383;28;20215;-74
2021/11/16 13:42:10;;;;;;;28.73;15.98;;;6.80;99.90;;;;;;4999270;28;20208;-74
2021/11/16 13:44:40;;;;;;;39.70;26.08;;;6.80;99.90;;;;;;5006561;28;20314;-73
2021/11/16 13:47:10;;;;;;;34.65;21.95;;;6.80;99.90;;;;;;5011582;28;20239;-72
2021/11/16 13:49:41;;;;;;;26.65;17.27;;;6.80;99.90;;;;;;5000995;28;20243;-73
2021/11/16 13:52:12;;;;;;;24.40;15.43;;;6.80;99.90;;;;;;5010458;28;20211;-73
2021/11/16 13:54:42;;;;;;;37.17;19.85;;;6.80;99.90;;;;;;4994425;28;20278;-73
2021/11/16 13:57:11;;;;;;;30.73;18.08;;;6.80;99.90;;;;;;4994551;28;20538;-73
2021/11/16 13:59:40;;;;;;;28.65;16.70;;;6.80;99.90;;;;;;4994657;28;20200;-74
2021/11/16 14:02:09;;;;;;;31.70;16.75;;;6.80;99.90;;;;;;5005301;28;20207;-73
2021/11/16 14:04:36;;;;;;;31.27;17.98;;;6.80;99.90;;;;;;5006959;28;20246;-73
2021/11/16 14:07:14;;;;;;;23.73;16.33;;;6.80;99.90;;;;;;4998315;28;20277;-73
2021/11/16 14:09:43;;;;;;;29.95;17.75;;;6.80;99.90;;;;;;4996863;28;20215;-73
2021/11/16 14:12:10;;;;;;;28.95;16.98;;;6.70;99.90;;;;;;4994694;28;20199;-73
2021/11/16 14:14:38;;;;;;;32.15;18.60;;;6.70;99.90;;;;;;4992186;28;20753;-73
2021/11/16 14:17:10;;;;;;;21.10;12.80;;;6.70;99.90;;;;;;4994395;28;20214;-73
2021/11/16 14:19:52;;;;;;;25.35;15.07;;;6.70;99.90;;;;;;4994235;28;20204;-73
2021/11/16 14:22:27;;;;;;;31.50;16.67;;;6.60;99.90;;;;;;5006846;28;20214;-73
2021/11/16 14:24:55;;;;;;;28.02;16.10;;;6.60;99.90;;;;;;5011974;28;20286;-72
2021/11/16 14:27:23;;;;;;;29.40;15.90;;;6.60;99.90;;;;;;5002987;28;20219;-73
2021/11/16 14:29:50;;;;;;;34.63;17.42;;;6.60;99.90;;;;;;4992700;28;20207;-74
2021/11/16 14:32:21;;;;;;;33.33;18.27;;;6.60;99.90;;;;;;5002578;28;20261;-72
2021/11/16 14:34:49;;;;;;;24.75;17.23;;;6.70;99.90;;;;;;5003523;28;20227;-72
2021/11/16 14:37:17;;;;;;;30.85;16.60;;;6.70;99.90;;;;;;5006288;28;20200;-73
2021/11/16 14:39:44;;;;;;;33.63;18.00;;;6.70;99.90;;;;;;5004798;28;20200;-73
2021/11/16 14:42:15;;;;;;;34.15;16.75;;;6.70;99.90;;;;;;5010012;28;20671;-72
2021/11/16 14:44:43;;;;;;;29.02;15.45;;;6.70;99.90;;;;;;5004006;28;20350;-75
2021/11/16 14:47:14;;;;;;;29.55;17.50;;;6.70;99.90;;;;;;5012074;28;20218;-75
2021/11/16 14:49:53;;;;;;;27.70;15.60;;;6.70;99.90;;;;;;5010158;28;20690;-75
2021/11/16 14:52:22;;;;;;;31.65;16.77;;;6.70;99.90;;;;;;5006567;28;20214;-76
2021/11/16 14:54:51;;;;;;;26.15;16.90;;;6.70;99.90;;;;;;5013657;28;20235;-75
2021/11/16 14:57:31;;;;;;;35.20;19.27;;;6.70;99.90;;;;;;5006501;28;20302;-75
2021/11/16 15:00:20;;;;;;;28.55;17.40;;;6.70;99.90;;;;;;5005292;28;20245;-75
2021/11/16 15:02:50;;;;;;;26.80;14.85;;;6.70;99.90;;;;;;5019771;28;20206;-74
2021/11/16 15:05:18;;;;;;;32.33;19.50;;;6.70;99.90;;;;;;5010725;28;20246;-75
2021/11/16 15:07:44;;;;;;;26.98;18.05;;;6.70;99.90;;;;;;5009666;28;20647;-74
2021/11/16 15:10:13;;;;;;;31.48;18.00;;;6.70;99.90;;;;;;4998556;28;20204;-74
2021/11/16 15:12:51;;;;;;;26.05;17.75;;;6.70;99.90;;;;;;5007238;28;20210;-75
2021/11/16 15:15:26;;;;;;;34.83;17.45;;;6.70;99.90;;;;;;4992069;28;20573;-76
2021/11/16 15:17:56;;;;;;;36.75;19.98;;;6.70;99.90;;;;;;4994031;28;20244;-76
2021/11/16 15:20:38;;;;;;;32.45;18.02;;;6.70;99.90;;;;;;4993928;28;20620;-75
2021/11/16 15:23:10;;;;;;;32.65;18.30;;;6.70;99.90;;;;;;5008917;28;20243;-76
2021/11/16 15:25:41;;;;;;;28.38;17.10;;;6.70;99.90;;;;;;5008192;28;20203;-76
2021/11/16 15:28:11;;;;;;;32.03;17.48;;;6.70;99.90;;;;;;5013339;28;20628;-76
2021/11/16 15:30:41;;;;;;;33.25;18.60;;;6.70;99.90;;;;;;5005251;28;20204;-77
2021/11/16 15:33:12;;;;;;;32.75;20.33;;;6.70;99.90;;;;;;5013512;28;20195;-75
2021/11/16 15:35:45;;;;;;;49.50;28.65;;;6.70;99.90;;;;;;5005188;28;20226;-76
2021/11/16 15:38:15;;;;;;;41.97;22.73;;;6.70;99.90;;;;;;5013007;28;20261;-75
2021/11/16 15:40:55;;;;;;;39.33;20.80;;;6.70;99.90;;;;;;5013684;28;20582;-75
2021/11/16 15:43:55;;;;;;;30.33;18.83;;;6.70;99.90;;;;;;5015306;28;20303;-75
2021/11/16 15:46:36;;;;;;;39.15;20.38;;;6.70;99.90;;;;;;4995358;28;20204;-75
2021/11/16 15:49:07;;;;;;;37.08;17.58;;;6.60;99.90;;;;;;5009323;28;20251;-76
2021/11/16 15:51:39;;;;;;;33.35;19.73;;;6.70;99.90;;;;;;4994459;28;20619;-75
2021/11/16 15:59:48;;;;;;;56.88;29.75;;;6.60;99.90;;;;;;4995253;28;20727;-76
2021/11/16 16:02:24;;;;;;;28.35;16.85;;;6.60;99.90;;;;;;5017531;28;20210;-76
2021/11/16 16:04:51;;;;;;;24.58;15.93;;;6.60;99.90;;;;;;5010699;28;20222;-75
2021/11/16 16:07:20;;;;;;;27.08;15.73;;;6.60;99.90;;;;;;5006897;28;20257;-75
2021/11/16 16:10:05;;;;;;;33.92;16.35;;;6.60;99.90;;;;;;5002201;28;20265;-75
2021/11/16 16:12:31;;;;;;;29.58;15.95;;;6.60;99.90;;;;;;5015952;28;20217;-75
2021/11/16 16:14:59;;;;;;;30.00;15.77;;;6.60;99.90;;;;;;5011024;28;20242;-76
2021/11/16 16:17:32;;;;;;;27.52;17.48;;;6.60;99.90;;;;;;5003105;28;20640;-75
2021/11/16 16:20:03;;;;;;;45.25;27.92;;;6.60;99.90;;;;;;5001479;28;20231;-75
2021/11/16 16:22:40;;;;;;;26.30;16.33;;;6.60;99.90;;;;;;5006833;28;20219;-75
2021/11/16 16:25:08;;;;;;;28.17;16.67;;;6.60;99.90;;;;;;5006399;28;20698;-75
2021/11/16 16:27:35;;;;;;;31.65;18.15;;;6.60;99.90;;;;;;5006869;28;20234;-76
2021/11/16 16:30:04;;;;;;;27.65;17.48;;;6.50;99.90;;;;;;5007709;28;20205;-75
2021/11/16 16:32:31;;;;;;;27.98;16.65;;;6.50;99.90;;;;;;4995774;28;20208;-76
2021/11/16 16:34:58;;;;;;;31.45;18.15;;;6.50;99.90;;;;;;4996917;28;20224;-76
2021/11/16 16:37:24;;;;;;;25.25;16.67;;;6.50;99.90;;;;;;5003604;28;20199;-76
2021/11/16 16:39:51;;;;;;;30.67;16.45;;;6.50;99.90;;;;;;5006218;28;20256;-75
2021/11/16 16:42:18;;;;;;;33.53;19.30;;;6.50;99.90;;;;;;5002544;28;20207;-76
2021/11/16 16:44:46;;;;;;;26.45;16.75;;;6.50;99.90;;;;;;5007564;28;20234;-76
2021/11/16 16:47:18;;;;;;;35.97;23.35;;;6.50;99.90;;;;;;5009677;28;20203;-76
2021/11/16 16:49:45;;;;;;;39.83;24.80;;;6.50;99.90;;;;;;4997055;28;20229;-77
2021/11/16 16:52:12;;;;;;;34.08;20.63;;;6.50;99.90;;;;;;5009167;28;20210;-76
2021/11/16 16:54:39;;;;;;;31.50;19.65;;;6.40;99.90;;;;;;5009090;28;20223;-77
2021/11/16 16:57:06;;;;;;;35.40;19.70;;;6.50;99.90;;;;;;4993497;28;20312;-76
2021/11/16 16:59:33;;;;;;;34.08;21.33;;;6.40;99.90;;;;;;5009535;28;20207;-77
2021/11/16 17:02:05;;;;;;;37.78;24.25;;;6.40;99.90;;;;;;5010234;28;20739;-75
2021/11/16 17:04:36;;;;;;;36.63;22.60;;;6.40;99.90;;;;;;4999898;28;20231;-77
2021/11/16 17:07:04;;;;;;;33.88;20.33;;;6.40;99.90;;;;;;5012699;28;20230;-75
2021/11/16 17:09:30;;;;;;;31.80;19.48;;;6.40;99.90;;;;;;5008449;28;20224;-75
2021/11/16 17:11:59;;;;;;;38.15;24.27;;;6.40;99.90;;;;;;4993060;28;20299;-75
2021/11/16 17:14:25;;;;;;;36.35;22.52;;;6.40;99.90;;;;;;4992565;28;20262;-74
2021/11/16 17:16:52;;;;;;;30.60;19.30;;;6.40;99.90;;;;;;4991990;28;20219;-75
2021/11/16 17:19:20;;;;;;;29.70;18.55;;;6.40;99.90;;;;;;4998470;28;20191;-76
2021/11/16 17:21:48;;;;;;;27.10;16.63;;;6.40;99.90;;;;;;5010448;28;20694;-76
2021/11/16 17:24:15;;;;;;;30.85;16.90;;;6.40;99.90;;;;;;4995539;28;20703;-74
2021/11/16 17:26:43;;;;;;;29.35;17.00;;;6.40;99.90;;;;;;4999286;28;20311;-75
2021/11/16 17:29:11;;;;;;;28.48;17.23;;;6.40;99.90;;;;;;4998015;28;20222;-75
2021/11/16 17:31:38;;;;;;;30.90;17.23;;;6.40;99.90;;;;;;5000828;28;20214;-75
2021/11/16 17:34:06;;;;;;;32.20;16.35;;;6.40;99.90;;;;;;5007451;28;20219;-76
2021/11/16 17:36:33;;;;;;;28.98;16.17;;;6.40;99.90;;;;;;5004377;28;20204;-76
2021/11/16 17:39:05;;;;;;;35.08;17.65;;;6.40;99.90;;;;;;5008678;28;20617;-76
2021/11/16 17:41:32;;;;;;;21.90;14.45;;;6.40;99.90;;;;;;5003944;28;20211;-76
2021/11/16 17:44:00;;;;;;;29.55;15.85;;;6.40;99.90;;;;;;5010146;28;20271;-75
2021/11/16 17:46:27;;;;;;;26.52;14.85;;;6.30;99.90;;;;;;5002970;28;20207;-75
2021/11/16 17:48:55;;;;;;;29.45;15.75;;;6.30;99.90;;;;;;5006794;28;20229;-76
2021/11/16 17:51:23;;;;;;;27.73;15.82;;;6.30;99.90;;;;;;5000338;28;20204;-76
2021/11/16 17:53:49;;;;;;;27.92;14.73;;;6.30;99.90;;;;;;4995686;28;20271;-75
2021/11/16 17:56:17;;;;;;;28.02;16.45;;;6.30;99.90;;;;;;5010397;28;20222;-75
2021/11/16 17:58:44;;;;;;;29.23;16.98;;;6.30;99.90;;;;;;5010302;28;20691;-75
2021/11/16 18:01:13;;;;;;;30.95;19.40;;;6.30;99.90;;;;;;4991385;28;20204;-76
2021/11/16 18:03:48;;;;;;;27.88;17.85;;;6.30;99.90;;;;;;5002877;28;20250;-75